createdAt,value
2018-02-06T00:00:12.855Z,5.60
2018-02-06T00:02:41.129Z,4.50
2018-02-06T00:05:08.836Z,4.60
2018-02-06T00:07:36.579Z,4.60
2018-02-06T00:10:04.371Z,5.23
2018-02-06T00:12:31.901Z,5.13
2018-02-06T00:14:59.595Z,5.93
2018-02-06T00:17:27.227Z,5.73
2018-02-06T00:19:54.721Z,5.23
2018-02-06T00:22:22.939Z,5.50
2018-02-06T00:24:50.431Z,5.60
2018-02-06T00:27:17.991Z,4.93
2018-02-06T00:29:45.510Z,5.77
2018-02-06T00:32:13.017Z,5.57
2018-02-06T00:34:40.783Z,6.03
2018-02-06T00:37:08.543Z,5.00
2018-02-06T00:39:36.046Z,5.90
2018-02-06T00:42:03.763Z,5.00
2018-02-06T00:44:31.521Z,6.30
2018-02-06T00:46:59.031Z,5.80
2018-02-06T00:49:26.719Z,5.90
2018-02-06T00:51:54.234Z,6.00
2018-02-06T00:54:21.735Z,6.40
2018-02-06T00:56:49.362Z,5.43
2018-02-06T00:59:16.879Z,5.30
2018-02-06T01:01:44.644Z,5.93
2018-02-06T01:04:12.162Z,5.70
2018-02-06T01:06:39.675Z,5.50
2018-02-06T01:09:07.191Z,6.00
2018-02-06T01:11:34.781Z,5.30
2018-02-06T01:14:02.593Z,5.93
2018-02-06T01:16:30.107Z,6.73
2018-02-06T01:18:57.623Z,7.00
2018-02-06T01:21:25.134Z,6.33
2018-02-06T01:23:52.655Z,6.70
2018-02-06T01:26:20.428Z,6.00
2018-02-06T01:28:48.028Z,6.60
2018-02-06T01:31:16.571Z,6.07
2018-02-06T01:33:44.095Z,5.70
2018-02-06T01:36:11.600Z,6.70
2018-02-06T01:38:39.124Z,6.30
2018-02-06T01:41:06.837Z,5.90
2018-02-06T01:43:34.343Z,5.23
2018-02-06T01:46:01.886Z,6.50
2018-02-06T01:48:29.695Z,7.00
2018-02-06T01:50:57.222Z,6.47
2018-02-06T01:53:25.093Z,7.20
2018-02-06T01:55:52.675Z,6.93
2018-02-06T01:58:20.174Z,5.53
2018-02-06T02:00:47.737Z,6.60
2018-02-06T02:03:16.012Z,6.33
2018-02-06T02:05:43.706Z,5.93
2018-02-06T02:08:11.211Z,5.80
2018-02-06T02:10:40.225Z,6.70
2018-02-06T02:13:07.728Z,5.73
2018-02-06T02:15:35.372Z,7.40
2018-02-06T02:18:03.007Z,5.50
2018-02-06T02:20:31.274Z,6.03
2018-02-06T02:22:58.773Z,6.17
2018-02-06T02:25:26.432Z,6.83
2018-02-06T02:27:54.216Z,7.40
2018-02-06T02:30:21.736Z,6.50
2018-02-06T02:32:49.439Z,6.80
2018-02-06T02:35:16.952Z,6.57
2018-02-06T02:37:44.458Z,6.40
2018-02-06T02:40:11.991Z,8.30
2018-02-06T04:40:48.503Z,7.80
2018-02-06T04:43:16.290Z,8.27
2018-02-06T04:45:43.811Z,8.50
2018-02-06T04:48:11.331Z,8.43
2018-02-06T04:50:38.839Z,8.30
2018-02-06T04:53:06.426Z,8.57
2018-02-06T04:55:33.931Z,8.07
2018-02-06T04:58:01.606Z,8.60
2018-02-06T05:00:29.131Z,8.43
2018-02-06T05:02:58.138Z,8.80
2018-02-06T05:05:25.867Z,8.77
2018-02-06T05:07:53.618Z,7.83
2018-02-06T05:10:21.387Z,9.00
2018-02-06T05:12:48.911Z,8.57
2018-02-06T05:15:16.420Z,8.30
2018-02-06T05:17:43.932Z,9.00
2018-02-06T05:20:11.506Z,8.40
2018-02-06T05:22:39.007Z,8.10
2018-02-06T05:25:06.715Z,9.57
2018-02-06T05:27:34.220Z,8.33
2018-02-06T05:30:01.732Z,8.67
2018-02-06T05:32:29.239Z,9.70
2018-02-06T05:34:56.761Z,9.47
2018-02-06T05:37:24.295Z,9.77
2018-02-06T05:39:51.804Z,8.97
2018-02-06T05:42:19.550Z,9.40
2018-02-06T05:44:47.088Z,8.93
2018-02-06T05:47:14.591Z,9.73
2018-02-06T05:49:42.101Z,9.60
2018-02-06T05:52:09.657Z,9.43
2018-02-06T05:54:37.460Z,9.93
2018-02-06T05:57:04.983Z,8.33
2018-02-06T05:59:32.495Z,10.00
2018-02-06T06:02:01.055Z,8.83
2018-02-06T06:04:28.582Z,21.97
2018-02-06T06:06:56.273Z,45.30
2018-02-06T06:09:25.334Z,11.77
2018-02-06T06:11:52.896Z,8.50
2018-02-06T06:14:20.478Z,8.70
2018-02-06T06:16:48.039Z,8.83
2018-02-06T06:19:16.059Z,9.77
2018-02-06T06:21:43.578Z,9.10
2018-02-06T06:24:11.224Z,9.40
2018-02-06T06:26:38.743Z,8.43
2018-02-06T06:29:06.247Z,9.20
2018-02-06T06:31:33.875Z,9.50
2018-02-06T06:34:01.383Z,8.80
2018-02-06T06:36:30.395Z,9.20
2018-02-06T06:38:57.901Z,8.57
2018-02-06T06:41:25.544Z,8.70
2018-02-06T06:43:53.052Z,8.00
2018-02-06T06:46:21.339Z,8.73
2018-02-06T06:48:48.848Z,9.30
2018-02-06T06:51:16.363Z,10.70
2018-02-06T06:53:44.063Z,10.90
2018-02-06T06:56:11.575Z,10.27
2018-02-06T06:58:39.152Z,9.90
2018-02-06T07:01:07.675Z,8.37
2018-02-06T07:03:35.187Z,8.87
2018-02-06T07:06:02.910Z,8.80
2018-02-06T07:08:30.436Z,8.47
2018-02-06T07:10:57.943Z,8.97
2018-02-06T07:13:25.575Z,9.57
2018-02-06T07:15:53.114Z,36.73
2018-02-06T07:18:20.929Z,18.30
2018-02-06T07:20:48.489Z,9.50
2018-02-06T07:23:15.992Z,9.23
2018-02-06T07:25:43.507Z,9.57
2018-02-06T07:28:12.776Z,10.00
2018-02-06T07:30:40.812Z,9.33
2018-02-06T07:33:08.311Z,9.07
2018-02-06T07:35:36.055Z,9.50
2018-02-06T07:38:03.593Z,9.40
2018-02-06T07:40:31.109Z,10.03
2018-02-06T07:42:59.400Z,9.50
2018-02-06T07:45:26.919Z,8.80
2018-02-06T07:47:54.566Z,9.60
2018-02-06T07:50:22.330Z,9.27
2018-02-06T07:52:49.835Z,8.77
2018-02-06T07:55:17.561Z,9.90
2018-02-06T07:57:45.321Z,9.07
2018-02-06T08:00:12.838Z,11.13
2018-02-06T08:02:40.358Z,10.37
2018-02-06T08:05:07.977Z,9.63
2018-02-06T08:07:35.484Z,9.67
2018-02-06T08:10:03.007Z,12.67
2018-02-06T08:12:30.671Z,10.93
2018-02-06T08:14:58.206Z,8.23
2018-02-06T08:17:25.729Z,9.47
2018-02-06T08:19:54.073Z,8.23
2018-02-06T08:22:21.631Z,8.67
2018-02-06T08:24:49.370Z,9.90
2018-02-06T08:27:16.862Z,9.23
2018-02-06T08:29:44.403Z,9.53
2018-02-06T08:32:12.185Z,10.27
2018-02-06T08:34:39.703Z,9.50
2018-02-06T08:37:07.203Z,9.93
2018-02-06T08:39:34.827Z,9.67
2018-02-06T08:42:02.344Z,9.70
2018-02-06T08:44:29.856Z,10.10
2018-02-06T08:46:57.400Z,8.90
2018-02-06T08:49:24.922Z,9.97
2018-02-06T08:51:52.743Z,9.70
2018-02-06T08:54:20.259Z,9.47
2018-02-06T08:56:47.834Z,10.00
2018-02-06T08:59:15.342Z,9.10
2018-02-06T09:01:43.795Z,8.60
2018-02-06T09:04:11.309Z,9.03
2018-02-06T09:06:38.823Z,8.40
2018-02-06T09:09:06.368Z,7.50
2018-02-06T09:11:34.229Z,7.13
2018-02-06T09:14:01.994Z,6.80
2018-02-06T09:16:29.557Z,6.67
2018-02-06T09:18:57.216Z,8.00
2018-02-06T09:21:24.986Z,8.47
2018-02-06T09:23:52.502Z,10.10
2018-02-06T09:26:20.378Z,8.57
2018-02-06T09:28:48.217Z,7.97
2018-02-06T09:31:15.711Z,7.60
2018-02-06T09:33:43.215Z,8.80
2018-02-06T09:36:10.962Z,6.97
2018-02-06T09:38:38.456Z,7.77
2018-02-06T09:41:06.167Z,6.70
2018-02-06T09:43:33.674Z,6.03
2018-02-06T09:46:01.260Z,7.20
2018-02-06T09:48:28.850Z,6.13
2018-02-06T09:50:56.734Z,6.17
2018-02-06T09:53:24.363Z,5.70
2018-02-06T09:55:51.868Z,6.03
2018-02-06T09:58:19.769Z,7.53
2018-02-06T10:00:47.252Z,8.80
2018-02-06T10:03:14.786Z,7.10
2018-02-06T10:05:42.290Z,5.33
2018-02-06T10:08:10.024Z,5.30
2018-02-06T10:10:37.515Z,5.30
2018-02-06T10:13:05.027Z,5.17
2018-02-06T10:15:32.761Z,4.70
2018-02-06T10:18:01.190Z,4.87
2018-02-06T10:20:28.691Z,4.23
2018-02-06T10:22:56.954Z,4.40
2018-02-06T10:25:24.440Z,3.67
2018-02-06T10:27:52.139Z,4.43
2018-02-06T10:30:19.851Z,5.43
2018-02-06T10:32:47.660Z,3.43
2018-02-06T10:35:15.150Z,3.50
2018-02-06T10:37:42.671Z,3.53
2018-02-06T10:40:10.156Z,3.80
2018-02-06T10:42:37.767Z,3.50
2018-02-06T10:45:05.463Z,4.00
2018-02-06T10:47:33.027Z,4.20
2018-02-06T10:50:00.785Z,3.47
2018-02-06T10:52:28.274Z,3.63
2018-02-06T10:54:56.922Z,4.27
2018-02-06T10:57:24.684Z,3.80
2018-02-06T10:59:52.564Z,3.20
2018-02-06T11:02:20.038Z,3.60
2018-02-06T11:04:47.542Z,3.47
2018-02-06T11:07:15.143Z,3.63
2018-02-06T11:09:42.647Z,3.83
2018-02-06T11:12:10.307Z,4.37
2018-02-06T11:14:37.815Z,3.30
2018-02-06T11:17:05.440Z,3.50
2018-02-06T11:19:33.036Z,3.80
2018-02-06T11:22:00.791Z,3.90
2018-02-06T11:24:28.294Z,3.87
2018-02-06T11:26:55.788Z,11.70
2018-02-06T11:29:23.465Z,6.80
2018-02-06T11:31:50.958Z,7.50
2018-02-06T11:34:18.465Z,5.47
2018-02-06T11:36:46.113Z,4.30
2018-02-06T11:39:13.905Z,5.80
2018-02-06T11:41:41.663Z,3.90
2018-02-06T11:44:09.853Z,5.73
2018-02-06T11:46:37.408Z,4.40
2018-02-06T11:49:04.984Z,7.70
2018-02-06T11:51:32.473Z,3.67
2018-02-06T11:54:00.006Z,4.27
2018-02-06T11:56:27.555Z,4.10
2018-02-06T11:58:55.082Z,4.97
2018-02-06T12:01:22.595Z,5.20
2018-02-06T12:03:50.080Z,3.90
2018-02-06T12:06:17.764Z,4.10
2018-02-06T12:08:45.262Z,5.50
2018-02-06T12:11:12.768Z,5.37
2018-02-06T12:13:40.411Z,6.70
2018-02-06T12:16:07.915Z,7.13
2018-02-06T12:18:35.411Z,7.37
2018-02-06T12:21:03.079Z,5.30
2018-02-06T12:23:30.585Z,6.27
2018-02-06T12:25:58.345Z,6.03
2018-02-06T12:28:25.875Z,5.80
2018-02-06T12:30:53.367Z,5.67
2018-02-06T12:33:21.018Z,5.33
2018-02-06T12:35:48.552Z,5.37
2018-02-06T12:38:16.222Z,3.93
2018-02-06T12:40:43.832Z,3.60
2018-02-06T12:43:12.105Z,4.17
2018-02-06T12:45:39.788Z,4.27
2018-02-06T12:48:07.288Z,4.40
2018-02-06T12:50:35.049Z,5.53
2018-02-06T12:53:02.820Z,4.80
2018-02-06T12:55:30.320Z,5.63
2018-02-06T12:57:58.015Z,4.90
2018-02-06T13:00:25.511Z,5.90
2018-02-06T13:02:53.003Z,5.57
2018-02-06T13:05:20.715Z,6.13
2018-02-06T13:07:48.475Z,4.90
2018-02-06T13:10:16.084Z,5.27
2018-02-06T13:12:44.642Z,5.97
2018-02-06T13:15:12.160Z,6.10
2018-02-06T13:17:39.802Z,5.80
2018-02-06T13:20:07.315Z,5.90
2018-02-06T13:22:34.935Z,5.53
2018-02-06T13:25:02.415Z,5.50
2018-02-06T13:27:30.018Z,5.30
2018-02-06T13:29:57.686Z,5.60
2018-02-06T13:32:25.185Z,6.70
2018-02-06T13:34:52.690Z,5.10
2018-02-06T13:37:20.407Z,6.07
2018-02-06T13:39:47.906Z,5.90
2018-02-06T13:42:15.400Z,5.73
2018-02-06T13:44:43.078Z,4.53
2018-02-06T13:47:10.724Z,4.80
2018-02-06T13:49:38.210Z,4.53
2018-02-06T13:52:05.764Z,5.40
2018-02-06T13:54:33.262Z,4.27
2018-02-06T13:57:00.771Z,4.77
2018-02-06T13:59:28.435Z,5.00
2018-02-06T14:01:55.935Z,5.17
2018-02-06T14:04:24.245Z,4.50
2018-02-06T14:06:52.043Z,5.20
2018-02-06T14:09:19.824Z,3.90
2018-02-06T14:11:47.577Z,4.70
2018-02-06T14:14:15.082Z,4.47
2018-02-06T14:16:42.716Z,3.90
2018-02-06T14:19:10.802Z,4.10
2018-02-06T14:21:38.623Z,3.37
2018-02-06T14:24:06.118Z,3.67
2018-02-06T14:26:33.878Z,4.03
2018-02-06T14:29:01.384Z,4.00
2018-02-06T14:31:28.991Z,5.07
2018-02-06T14:33:56.495Z,4.07
2018-02-06T14:36:24.361Z,4.00
2018-02-06T14:38:52.043Z,4.47
2018-02-06T14:41:19.574Z,4.10
2018-02-06T14:43:47.263Z,6.90
2018-02-06T14:46:14.778Z,6.63
2018-02-06T14:48:42.490Z,5.00
2018-02-06T14:51:10.246Z,5.40
2018-02-06T14:53:37.750Z,4.77
2018-02-06T14:56:05.691Z,4.83
2018-02-06T14:58:33.179Z,5.10
2018-02-06T15:01:00.813Z,4.87
2018-02-06T15:03:28.450Z,4.43
2018-02-06T15:05:55.939Z,5.43
2018-02-06T15:08:23.455Z,4.67
2018-02-06T15:10:50.966Z,5.10
2018-02-06T15:13:19.227Z,5.27
2018-02-06T15:15:46.736Z,5.83
2018-02-06T15:18:14.440Z,5.30
2018-02-06T15:20:41.940Z,4.30
2018-02-06T15:23:09.430Z,5.00
2018-02-06T15:25:37.053Z,6.00
2018-02-06T15:28:04.566Z,5.30
2018-02-06T15:30:32.067Z,5.13
2018-02-06T15:32:59.579Z,5.20
2018-02-06T15:35:27.229Z,6.50
2018-02-06T15:37:54.742Z,4.70
2018-02-06T15:40:22.239Z,4.90
2018-02-06T15:42:49.909Z,5.70
2018-02-06T15:45:17.403Z,5.30
2018-02-06T15:47:44.915Z,5.80
2018-02-06T15:50:12.535Z,4.97
2018-02-06T15:52:40.347Z,5.53
2018-02-06T15:55:07.900Z,4.53
2018-02-06T15:57:35.567Z,5.37
2018-02-06T16:00:03.072Z,4.60
2018-02-06T16:02:30.575Z,5.00
2018-02-06T16:04:58.087Z,5.03
2018-02-06T16:07:26.364Z,4.97
2018-02-06T16:09:54.075Z,4.97
2018-02-06T16:12:21.587Z,5.50
2018-02-06T16:14:50.215Z,5.70
2018-02-06T16:17:18.611Z,5.20
2018-02-06T16:19:46.111Z,5.97
2018-02-06T16:22:13.810Z,5.67
2018-02-06T16:24:41.318Z,6.60
2018-02-06T16:27:08.999Z,6.00
2018-02-06T16:29:36.482Z,5.83
2018-02-06T16:32:04.251Z,5.43
2018-02-06T16:34:31.747Z,5.70
2018-02-06T16:36:59.299Z,12.10
2018-02-06T16:39:26.825Z,6.70
2018-02-06T16:41:54.386Z,5.13
2018-02-06T16:44:21.899Z,6.20
2018-02-06T16:46:49.418Z,5.83
2018-02-06T16:49:17.033Z,8.73
2018-02-06T16:51:44.827Z,8.20
2018-02-06T16:54:12.342Z,6.37
2018-02-06T16:56:39.861Z,6.40
2018-02-06T16:59:07.477Z,6.30
2018-02-06T17:01:35.037Z,9.77
2018-02-06T17:04:02.721Z,5.83
2018-02-06T17:06:30.230Z,5.90
2018-02-06T17:08:57.756Z,7.57
2018-02-06T17:11:25.251Z,8.50
2018-02-06T17:13:52.747Z,5.90
2018-02-06T17:16:20.268Z,5.77
2018-02-06T17:18:47.775Z,6.10
2018-02-06T17:21:15.529Z,5.40
2018-02-06T17:23:43.027Z,5.97
2018-02-06T17:26:10.531Z,6.57
2018-02-06T17:28:38.036Z,6.57
2018-02-06T17:31:05.562Z,5.90
2018-02-06T17:33:33.172Z,5.73
2018-02-06T17:36:00.894Z,6.30
2018-02-06T17:38:28.394Z,7.70
2018-02-06T17:40:56.051Z,6.00
2018-02-06T17:43:24.281Z,6.47
2018-02-06T17:45:51.810Z,6.47
2018-02-06T17:48:19.295Z,6.90
2018-02-06T17:50:46.815Z,6.57
2018-02-06T17:53:14.759Z,7.13
2018-02-06T17:55:43.022Z,6.30
2018-02-06T17:58:10.527Z,7.20
2018-02-06T18:00:38.023Z,6.77
2018-02-06T18:03:05.676Z,5.70
2018-02-06T18:05:33.428Z,6.20
2018-02-06T18:08:01.799Z,6.50
2018-02-06T18:10:29.491Z,6.67
2018-02-06T18:12:57.921Z,6.00
2018-02-06T18:15:25.437Z,6.40
2018-02-06T18:17:52.948Z,7.50
2018-02-06T18:20:20.454Z,6.60
2018-02-06T18:22:48.068Z,6.10
2018-02-06T18:25:15.588Z,7.10
2018-02-06T18:27:43.099Z,6.83
2018-02-06T18:30:10.603Z,6.80
2018-02-06T18:32:38.920Z,6.63
2018-02-06T18:35:06.423Z,6.57
2018-02-06T18:37:33.936Z,7.47
2018-02-06T18:40:01.550Z,7.27
2018-02-06T18:42:29.060Z,7.23
2018-02-06T18:44:56.641Z,6.50
2018-02-06T18:47:24.168Z,7.40
2018-02-06T18:49:51.698Z,6.80
2018-02-06T18:52:19.193Z,6.77
2018-02-06T18:54:46.699Z,6.50
2018-02-06T18:57:15.249Z,6.83
2018-02-06T18:59:42.763Z,6.80
2018-02-06T19:02:10.463Z,7.30
2018-02-06T19:04:37.979Z,6.73
2018-02-06T19:07:05.536Z,6.80
2018-02-06T19:09:33.318Z,6.43
2018-02-06T19:12:00.823Z,5.80
2018-02-06T19:14:28.363Z,5.73
2018-02-06T19:16:55.895Z,6.83
2018-02-06T19:19:23.448Z,6.00
2018-02-06T19:21:50.968Z,6.10
2018-02-06T19:24:18.484Z,7.30
2018-02-06T19:26:45.970Z,6.97
2018-02-06T19:29:13.727Z,7.33
2018-02-06T19:31:41.473Z,6.67
2018-02-06T19:34:09.248Z,5.70
2018-02-06T19:36:36.796Z,7.10
2018-02-06T19:39:04.467Z,6.40
2018-02-06T19:41:31.994Z,7.33
2018-02-06T19:43:59.504Z,6.93
2018-02-06T19:46:27.147Z,7.03
2018-02-06T19:48:54.758Z,7.47
2018-02-06T19:51:23.279Z,7.33
2018-02-06T19:53:50.830Z,7.80
2018-02-06T19:56:18.339Z,7.90
2018-02-06T19:58:46.611Z,7.27
2018-02-06T20:01:14.337Z,7.53
2018-02-06T20:03:42.661Z,8.30
2018-02-06T20:06:10.188Z,8.13
2018-02-06T20:08:37.700Z,7.63
2018-02-06T20:11:05.255Z,8.10
2018-02-06T20:13:32.754Z,7.90
2018-02-06T20:16:00.343Z,8.17
2018-02-06T20:18:28.079Z,7.87
2018-02-06T20:20:55.588Z,7.17
2018-02-06T20:23:23.106Z,7.60
2018-02-06T20:25:50.766Z,7.73
2018-02-06T20:28:18.259Z,9.03
2018-02-06T20:30:45.954Z,7.43
2018-02-06T20:33:13.475Z,7.90
2018-02-06T20:35:41.150Z,8.00
2018-02-06T20:38:08.678Z,8.00
2018-02-06T20:40:36.391Z,7.37
2018-02-06T20:43:03.944Z,8.27
2018-02-06T20:45:31.575Z,7.80
2018-02-06T20:47:59.378Z,8.17
2018-02-06T20:50:27.147Z,7.63
2018-02-06T20:52:54.667Z,8.70
2018-02-06T20:55:22.341Z,7.90
2018-02-06T20:57:49.900Z,14.87
2018-02-06T21:00:17.456Z,13.80
2018-02-06T21:02:44.962Z,10.87
2018-02-06T21:05:13.282Z,10.60
2018-02-06T21:07:40.880Z,8.67
2018-02-06T21:10:08.654Z,9.43
2018-02-06T21:12:36.174Z,9.43
2018-02-06T21:15:03.696Z,8.90
2018-02-06T21:17:32.253Z,8.50
2018-02-06T21:19:59.748Z,8.33
2018-02-06T21:22:27.959Z,8.80
2018-02-06T21:24:55.475Z,8.40
2018-02-06T21:27:22.987Z,9.20
2018-02-06T21:29:50.543Z,9.20
2018-02-06T21:32:18.084Z,9.53
2018-02-06T21:34:45.678Z,8.33
2018-02-06T21:37:13.196Z,9.37
2018-02-06T21:39:40.752Z,7.90
2018-02-06T21:42:08.333Z,8.60
2018-02-06T21:44:36.097Z,8.03
2018-02-06T21:47:03.666Z,8.43
2018-02-06T21:49:31.167Z,8.60
2018-02-06T21:51:58.684Z,9.07
2018-02-06T21:54:26.232Z,7.93
2018-02-06T21:56:53.739Z,9.17
2018-02-06T21:59:21.263Z,8.17
2018-02-06T22:01:48.776Z,9.00
2018-02-06T22:04:16.368Z,8.10
2018-02-06T22:06:43.871Z,9.00
2018-02-06T22:09:11.527Z,8.53
2018-02-06T22:11:39.034Z,8.50
2018-02-06T22:14:06.539Z,8.37
2018-02-06T22:16:34.239Z,8.33
2018-02-06T22:19:02.106Z,8.53
2018-02-06T22:21:29.764Z,8.93
2018-02-06T22:23:58.048Z,8.97
2018-02-06T22:26:25.626Z,8.70
2018-02-06T22:28:53.152Z,9.83
2018-02-06T22:31:20.863Z,8.80
2018-02-06T22:33:50.163Z,8.80
2018-02-06T22:36:17.684Z,9.27
2018-02-06T22:38:45.412Z,8.93
2018-02-06T22:41:13.203Z,8.80
2018-02-06T22:43:40.891Z,8.63
2018-02-06T22:46:08.406Z,8.03
2018-02-06T22:48:35.911Z,8.63
2018-02-06T22:51:03.577Z,7.80
2018-02-06T22:53:31.247Z,8.53
2018-02-06T22:55:58.742Z,9.23
2018-02-06T22:58:26.557Z,8.67
2018-02-06T23:00:54.082Z,9.57
2018-02-06T23:03:21.917Z,8.23
2018-02-06T23:05:49.432Z,9.03
2018-02-06T23:08:16.952Z,9.30
2018-02-06T23:10:44.752Z,8.70
2018-02-06T23:13:12.275Z,8.83
2018-02-06T23:15:39.942Z,9.60
2018-02-06T23:18:07.736Z,9.73
2018-02-06T23:20:35.264Z,8.70
2018-02-06T23:23:02.776Z,9.10
2018-02-06T23:25:30.382Z,9.27
2018-02-06T23:27:57.879Z,8.83
2018-02-06T23:30:25.427Z,8.73
2018-02-06T23:32:52.942Z,9.13
2018-02-06T23:35:20.523Z,8.60
2018-02-06T23:37:48.311Z,8.90
2018-02-06T23:40:15.823Z,9.53
2018-02-06T23:42:43.370Z,8.50
2018-02-06T23:45:11.902Z,8.67
2018-02-06T23:47:39.670Z,9.17
2018-02-06T23:50:07.181Z,9.07
2018-02-06T23:52:34.699Z,9.30
2018-02-06T23:55:02.213Z,9.83
2018-02-06T23:57:30.399Z,8.33
2018-02-06T23:59:58.308Z,9.00
